ADDS METAR Data INFO
IDs: Format: Raw Decoded Include TAF

Data at: 0834 UTC 21 Oct 2017

KRSW 210753Z 06007KT 10SM CLR 23/22 A3002 RMK AO2 SLP162 T02280222
KRSW 210653Z 06008KT 10SM CLR 23/23 A3003 RMK AO2 SLP165 T02280228
KRSW 210553Z 06006KT 10SM CLR 23/23 A3004 RMK AO2 SLP170 60016 T02280228 10239 20228 58008
KRSW 210453Z 05007KT 10SM CLR 23/23 A3005 RMK AO2 SLP174 T02280228 403110228
KRSW 210353Z 06008KT 10SM CLR 23/23 A3007 RMK AO2 SLP178 T02330228
KRSW 210253Z 05006KT 10SM CLR 23/23 A3007 RMK AO2 SLP179 60016 T02330233 53007
KRSW 210153Z 05006KT 10SM FEW090 24/24 A3006 RMK AO2 RAE08 SLP176 P0000 T02390239
KRSW 210053Z 08015G19KT 6SM -RA BR SCT040 OVC060 24/23 A3005 RMK AO2 SLP173 P0016 T02390233
KRSW 210035Z 07008KT 3SM -RA BR SCT023 BKN043 OVC060 24/24 A3005 RMK AO2 P0015 T02390239
KRSW 210028Z 09009KT 2SM +RA BR BKN023 BKN032 OVC049 23/23 A3005 RMK AO2 P0015 T02330233
KRSW 202353Z 06008KT 5SM -RA BR FEW028 BKN046 OVC065 23/23 A3005 RMK AO2 RAB08 SLP172 P0001 60004 T02330233 10311 20233 53016
KRSW 202327Z 09013KT 10SM -RA SCT012 BKN037 OVC055 24/23 A3004 RMK AO2 RAB08 P0000 T02390233
KRSW 202320Z 09012KT 10SM -RA BKN014 BKN055 OVC085 24/23 A3003 RMK AO2 RAB08 P0000 T02390233
KRSW 202312Z 09012KT 8SM -RA FEW010 BKN017 OVC080 24/24 A3003 RMK AO2 RAB08 P0000 T02390239
KRSW 202253Z 06009KT 10SM SCT019 BKN065 OVC080 24/24 A3002 RMK AO2 RAE36 SLP164 P0003 T02390239
KRSW 202216Z 07015KT 4SM -RA BR FEW031 BKN045 OVC060 24/24 A3002 RMK AO2 P0003 T02390239
KRSW 202206Z 07017KT 2 1/2SM -RA BR FEW028 BKN043 OVC060 24/24 A3001 RMK AO2 VIS 1 1/4V5 P0002 T02390239
KRSW 202153Z 09016KT 6SM -RA BR SCT024 SCT042 BKN050 25/23 A3001 RMK AO2 PK WND 09028/2136 RAB48 SLP161 P0000 T02500233
KRSW 202053Z 08016G22KT 10SM BKN090 27/23 A3000 RMK AO2 PK WND 08028/1956 RAB03E17 SLP156 P0000 60000 T02720228 56007
KRSW 201953Z 08015G26KT 10SM FEW039 SCT075 OVC095 29/22 A3000 RMK AO2 PK WND 08026/1948 SLP157 T02940222
KRSW 201853Z 08017G23KT 10SM SCT046 BKN065 29/23 A3000 RMK AO2 SLP155 T02940228
KRSW 201753Z 07015G24KT 10SM FEW030 31/23 A3002 RMK AO2 SLP163 60000 T03060228 10306 20228 58016
KRSW 201653Z 07011G20KT 10SM SCT027 BKN034 BKN055 29/23 A3005 RMK AO2 RAB43E52 SLP173 P0000 T02940233
KRSW 201644Z 06014KT 10SM -RA BKN027 BKN038 OVC055 29/23 A3005 RMK AO2 RAB43 P0000 T02890233
KRSW 201553Z 07016G24KT 10SM SCT026 OVC046 28/23 A3007 RMK AO2 SLP179 T02830233
KRSW 201549Z 07016KT 10SM SCT026 OVC046 28/23 A3007 RMK AO2
KRSW 201453Z 06017KT 10SM BKN024 BKN028 28/23 A3007 RMK AO2 SLP180 T02830233 50004
KRSW 201434Z 06015KT 10SM BKN022 28/23 A3007 RMK AO2 T02780233
KRSW 201353Z 06014G18KT 10SM CLR 27/23 A3008 RMK AO2 SLP182 T02670233
KRSW 201253Z 04010KT 10SM CLR 24/23 A3007 RMK AO2 SLP179 T02440228
KRSW 201153Z 04007KT 10SM CLR 23/22 A3006 RMK AO2 SLP176 T02280222 10233 20228 53008
KRSW 201053Z 03006KT 10SM CLR 23/22 A3005 RMK AO2 SLP173 T02280222
KRSW 200953Z 04006KT 10SM CLR 23/22 A3004 RMK AO2 SLP171 T02280222
KRSW 200853Z 04005KT 10SM CLR 23/22 A3004 RMK AO2 SLP168 T02280222 55006
KRSW 200753Z 04006KT 10SM FEW031 BKN120 23/23 A3003 RMK AO2 SLP167 T02330228
KRSW 200653Z 04006KT 10SM FEW027 23/23 A3004 RMK AO2 SLP169 T02330228
KRSW 200553Z 04007KT 10SM CLR 23/23 A3005 RMK AO2 SLP174 T02330228 10272 20233 58004
KRSW 200453Z 04006KT 10SM CLR 24/23 A3006 RMK AO2 SLP176 T02390228 403220217
KRSW 200353Z 04006KT 10SM CLR 24/23 A3007 RMK AO2 SLP179 T02440228
KRSW 200253Z 06008KT 10SM CLR 25/23 A3006 RMK AO2 SLP178 T02500228 53016
KRSW 200153Z 06012KT 10SM CLR 26/22 A3004 RMK AO2 SLP170 T02560222
KRSW 200053Z 05011KT 10SM CLR 27/22 A3003 RMK AO2 SLP166 T02670222
KRSW 192353Z 07012KT 10SM FEW032 SCT100 27/23 A3002 RMK AO2 SLP162 60000 T02720228 10322 20272 53015
KRSW 192253Z 07014KT 10SM SCT085 28/23 A3000 RMK AO2 RAB22E31 SLP155 P0000 T02780228
KRSW 192153Z 06009KT 10SM SCT040 28/23 A2998 RMK AO2 RAB07E18 SLP150 P0000 T02830228
KRSW 192053Z COR 05011KT 10SM SCT040 31/23 A2997 RMK AO2 SLP147 T03110228 56010